Albany, NY

10:05 AM EDT on October 21, 2019 (GMT -0400)
Albany International | | Change Station
Active Advisory: Special Statement

Elev 282 ft 42.75 °N, 73.80 °W | Updated 14 minutes ago

Patches of Fog
Patches Fog Mist
47 °F
Feels Like 47 °F
N
4
Wind Variable Wind from North

Today
High -- | Low -- °F
--% Chance of Precip.
Yesterday
High -- | Low -- °F
Precip. -- in
Pressure 30.17 in
Visibility 0.8 miles
Clouds Overcast 300 ft
Dew Point 45 °F
Humidity 93%
Rainfall 0.00 in
Snow Depth Not available.
7:15 AM 6:03 PM
Waning Gibbous, 49% visible
METAR KALB 211351Z 35003KT 3/4SM R01/P6000FT BCFG BR OVC003 08/07 A3016 RMK AO2 SFC VIS 1 1/4 DZE11 SLP214 VIS 1V1 1/2 BCFG ALQDS P0000 T00830072
Pressure 30.17 in
Visibility 0.8 miles
Clouds Overcast 300 ft
Dew Point 45 °F
Humidity 93%
Rainfall 0.00 in
Snow Depth Not available.
7:15 AM 6:03 PM
Waning Gibbous, 49% visible
METAR KALB 211351Z 35003KT 3/4SM R01/P6000FT BCFG BR OVC003 08/07 A3016 RMK AO2 SFC VIS 1 1/4 DZE11 SLP214 VIS 1V1 1/2 BCFG ALQDS P0000 T00830072

Get Your Daily Forecast Email!

Thanks for signing up!

Be on the lookout for a verification email in your inbox.

You'll start receiving severe weather alerts in your inbox..

×

10-Day Weather Forecast

Almanac

Astronomy

Oct. 21, 2019 Rise Set
Actual Time
Civil Twilight
Nautical Twilight
Astronomical Twilight
Moon
Length of Visible Light
Length of Day
Tomorrow will be .
, % of the Moon is Illuminated

Today's Extremes

State Highs State Lows

Community

WunderPhotos

Category 6

Welcome to Category 6. This is the collective home for Weather Underground's featured writeups by Dr. Jeff Masters (right), Bob Henson (left), Chris Burt, and other regular contributors.

Nearby

Air Quality

  Air Quality AQ Index Pollutant
Not available.

Snow Depth

Station Depth Elevation

Earthquake Activity

City Distance Mag. Time & Date
Minimum magnitude displayed is 2.5.

Coastal Water Temperatures

Place Temperature

Stations

Nearby Weather Stations

Station Location Temp. Windchill Dew Point Humidity Wind Precip. Elev Updated Type
                   

Watches & Warnings

Special Statement
Issued: 9:07 AM EDT Oct. 21, 2019 – National Weather Service

... Patchy dense fog continues this morning...

Visibilities are beginning to improve, however, patchy dense fog
with visibilities of a quarter mile or less remain possible
through 11 am. Motorists should exercise caution and prepare for
quickly changing visibilities.


907 am EDT Mon Oct 21 2019

... Patchy dense fog continues this morning...

Visibilities are beginning to improve, however, patchy dense fog
with visibilities of a quarter mile or less remain possible
through 11 am. Motorists should exercise caution and prepare for
quickly changing visibilities.